createdAt,value
2022-12-18T00:01:22.809Z,100205.20
2022-12-18T00:03:55.940Z,100198.14
2022-12-18T00:06:30.485Z,100198.15
2022-12-18T00:09:04.034Z,100203.68
2022-12-18T00:11:35.672Z,100200.03
2022-12-18T00:14:07.725Z,100205.74
2022-12-18T00:16:39.751Z,100211.98
2022-12-18T00:19:13.418Z,100216.99
2022-12-18T00:21:45.966Z,100216.54
2022-12-18T00:24:17.568Z,100223.85
2022-12-18T00:26:49.389Z,100220.56
2022-12-18T00:29:20.992Z,100218.61
2022-12-18T00:31:52.841Z,100220.36
2022-12-18T00:34:24.794Z,100225.23
2022-12-18T00:36:56.523Z,100223.13
2022-12-18T00:39:28.249Z,100224.39
2022-12-18T00:42:32.431Z,100228.84
2022-12-18T00:45:10.652Z,100229.83
2022-12-18T00:47:44.708Z,100233.63
2022-12-18T00:50:16.376Z,100237.46
2022-12-18T00:52:48.233Z,100243.45
2022-12-18T00:55:20.453Z,100251.19
2022-12-18T00:57:55.144Z,100251.35
2022-12-18T01:00:27.160Z,100253.79
2022-12-18T01:02:58.981Z,100255.17
2022-12-18T01:05:32.062Z,100258.50
2022-12-18T01:08:04.032Z,100265.11
2022-12-18T01:10:35.735Z,100268.92
2022-12-18T01:13:07.558Z,100274.66
2022-12-18T01:15:39.279Z,100277.99
2022-12-18T01:18:11.103Z,100278.41
2022-12-18T01:20:42.961Z,100283.13
2022-12-18T01:23:14.638Z,100276.58
2022-12-18T01:25:46.222Z,100283.35
2022-12-18T01:28:17.876Z,100282.04
2022-12-18T01:30:49.583Z,100281.11
2022-12-18T01:33:21.419Z,100282.85
2022-12-18T01:35:53.046Z,100280.59
2022-12-18T01:38:24.723Z,100278.79
2022-12-18T01:41:02.212Z,100279.06
2022-12-18T01:43:50.356Z,100280.44
2022-12-18T01:46:24.328Z,100286.73
2022-12-18T01:49:00.179Z,100286.16
2022-12-18T01:51:34.332Z,100293.05
2022-12-18T01:54:06.109Z,100293.21
2022-12-18T01:56:39.673Z,100300.64
2022-12-18T01:59:15.200Z,100302.45
2022-12-18T02:01:48.331Z,100306.89
2022-12-18T02:04:26.925Z,100306.59
2022-12-18T02:07:12.013Z,100314.27
2022-12-18T02:09:51.413Z,100314.39
2022-12-18T02:12:25.946Z,100318.56
2022-12-18T02:15:10.777Z,100320.11
2022-12-18T02:17:49.190Z,100332.52
2022-12-18T02:20:26.845Z,100342.95
2022-12-18T02:23:14.468Z,100343.35
2022-12-18T02:26:22.113Z,100348.55
2022-12-18T02:28:59.308Z,100352.52
2022-12-18T02:31:52.073Z,100354.13
2022-12-18T02:34:36.772Z,100353.59
2022-12-18T02:37:12.741Z,100351.50
2022-12-18T02:39:47.818Z,100351.69
2022-12-18T02:42:22.828Z,100351.38
2022-12-18T02:45:15.379Z,100354.92
2022-12-18T02:48:17.086Z,100360.25
2022-12-18T02:50:59.043Z,100368.36
2022-12-18T02:53:41.823Z,100374.06
2022-12-18T02:56:20.846Z,100375.63
2022-12-18T02:59:51.678Z,100375.11
2022-12-18T03:02:27.515Z,100378.20
2022-12-18T03:05:14.962Z,100384.08
2022-12-18T03:07:54.172Z,100387.71
2022-12-18T03:10:44.690Z,100391.40
2022-12-18T03:13:22.425Z,100400.58
2022-12-18T03:16:03.277Z,100399.57
2022-12-18T03:19:00.151Z,100401.11
2022-12-18T03:21:53.462Z,100408.20
2022-12-18T03:24:34.277Z,100403.86
2022-12-18T03:27:36.252Z,100402.17
2022-12-18T03:30:11.225Z,100402.92
2022-12-18T03:32:49.139Z,100399.60
2022-12-18T03:35:27.253Z,100402.92
2022-12-18T03:38:01.662Z,100404.02
2022-12-18T03:40:59.149Z,100406.49
2022-12-18T03:43:57.586Z,100411.52
2022-12-18T03:46:42.504Z,100415.04
2022-12-18T03:49:19.865Z,100418.66
2022-12-18T03:51:56.532Z,100419.48
2022-12-18T03:54:30.537Z,100415.52
2022-12-18T03:57:09.618Z,100424.08
2022-12-18T03:59:42.404Z,100428.63
2022-12-18T04:02:17.631Z,100429.73
2022-12-18T04:04:52.411Z,100432.20
2022-12-18T04:07:24.507Z,100439.17
2022-12-18T04:09:59.838Z,100444.05
2022-12-18T04:12:33.229Z,100440.40
2022-12-18T04:15:08.341Z,100440.77
2022-12-18T04:18:00.748Z,100438.55
2022-12-18T04:20:37.584Z,100439.86
2022-12-18T04:23:13.758Z,100442.38
2022-12-18T04:25:45.702Z,100445.84
2022-12-18T04:28:17.284Z,100447.50
2022-12-18T04:30:56.788Z,100458.60
2022-12-18T04:33:28.541Z,100458.67
2022-12-18T04:36:00.316Z,100464.67
2022-12-18T04:38:32.095Z,100464.00
2022-12-18T04:41:03.800Z,100467.87
2022-12-18T04:43:39.175Z,100475.30
2022-12-18T04:46:14.713Z,100481.02
2022-12-18T04:48:49.870Z,100485.52
2022-12-18T04:51:26.371Z,100485.52
2022-12-18T04:53:58.733Z,100484.48
2022-12-18T04:56:33.347Z,100490.06
2022-12-18T04:59:25.846Z,100494.80
2022-12-18T05:02:24.510Z,100500.31
2022-12-18T05:04:56.456Z,100502.36
2022-12-18T05:07:28.586Z,100502.30
2022-12-18T05:10:00.438Z,100500.52
2022-12-18T05:13:18.498Z,100503.27
2022-12-18T05:15:55.337Z,100504.67
2022-12-18T05:18:38.696Z,100508.09
2022-12-18T05:21:11.164Z,100510.35
2022-12-18T05:23:43.625Z,100513.40
2022-12-18T05:26:24.157Z,100521.96
2022-12-18T05:28:55.794Z,100524.95
2022-12-18T05:31:35.980Z,100526.92
2022-12-18T05:34:10.877Z,100529.70
2022-12-18T05:36:43.396Z,100524.42
2022-12-18T05:39:16.571Z,100527.55
2022-12-18T05:42:00.892Z,100532.95
2022-12-18T05:44:32.598Z,100541.60
2022-12-18T05:47:05.359Z,100545.42
2022-12-18T05:49:36.977Z,100545.61
2022-12-18T05:52:29.533Z,100552.63
2022-12-18T05:55:03.497Z,100550.84
2022-12-18T05:57:35.386Z,100548.52
2022-12-18T06:00:25.683Z,100554.04
2022-12-18T06:02:57.447Z,100554.20
2022-12-18T06:05:38.705Z,100553.67
2022-12-18T06:08:11.851Z,100551.93
2022-12-18T06:10:44.645Z,100547.55
2022-12-18T06:13:16.465Z,100559.25
2022-12-18T06:15:53.280Z,100560.98
2022-12-18T06:18:27.427Z,100559.61
2022-12-18T06:21:03.861Z,100563.80
2022-12-18T06:23:42.153Z,100565.88
2022-12-18T06:26:16.199Z,100569.56
2022-12-18T06:28:47.940Z,100575.70
2022-12-18T06:31:20.221Z,100579.73
2022-12-18T06:34:14.095Z,100579.89
2022-12-18T06:36:44.177Z,100587.84
2022-12-18T06:39:15.909Z,100593.06
2022-12-18T06:41:47.591Z,100592.34
2022-12-18T06:44:19.588Z,100596.68
2022-12-18T06:46:51.413Z,100600.47
2022-12-18T06:49:43.413Z,100599.80
2022-12-18T06:52:16.034Z,100606.45
2022-12-18T06:54:50.274Z,100615.30
2022-12-18T06:57:22.611Z,100618.61
2022-12-18T07:00:01.793Z,100617.43
2022-12-18T07:02:34.632Z,100624.46
2022-12-18T07:05:11.208Z,100630.80
2022-12-18T07:07:44.126Z,100632.56
2022-12-18T07:10:18.810Z,100634.98
2022-12-18T07:12:50.850Z,100636.53
2022-12-18T07:15:43.613Z,100637.04
2022-12-18T07:18:38.689Z,100639.12
2022-12-18T07:21:08.120Z,100646.23
2022-12-18T07:23:40.289Z,100652.31
2022-12-18T07:26:33.157Z,100656.16
2022-12-18T07:29:06.561Z,100660.36
2022-12-18T07:31:36.676Z,100668.41
2022-12-18T07:34:11.715Z,100670.33
2022-12-18T07:36:48.185Z,100667.33
2022-12-18T07:39:22.123Z,100669.89
2022-12-18T07:42:07.621Z,100674.21
2022-12-18T07:44:39.811Z,100674.67
2022-12-18T07:47:12.303Z,100679.47
2022-12-18T07:49:44.313Z,100680.52
2022-12-18T07:52:17.735Z,100682.63
2022-12-18T07:54:51.415Z,100672.21
2022-12-18T07:57:48.934Z,100681.27
2022-12-18T08:00:18.161Z,100683.73
2022-12-18T08:02:50.217Z,100683.43
2022-12-18T08:05:23.361Z,100683.55
2022-12-18T08:07:57.039Z,100684.80
2022-12-18T08:10:28.866Z,100682.45
2022-12-18T08:13:04.894Z,100685.64
2022-12-18T08:15:37.100Z,100679.44
2022-12-18T08:18:13.887Z,100681.94
2022-12-18T08:20:49.255Z,100689.71
2022-12-18T08:23:20.877Z,100687.95
2022-12-18T08:25:52.758Z,100688.41
2022-12-18T08:28:24.403Z,100693.27
2022-12-18T08:30:56.529Z,100697.34
2022-12-18T08:33:29.322Z,100696.80
2022-12-18T08:36:02.840Z,100691.84
2022-12-18T08:38:33.723Z,100691.94
2022-12-18T08:41:09.864Z,100697.63
2022-12-18T08:44:00.780Z,100702.84
2022-12-18T08:46:39.356Z,100709.42
2022-12-18T08:49:12.130Z,100713.73
2022-12-18T08:51:43.861Z,100714.21
2022-12-18T08:54:16.537Z,100718.98
2022-12-18T08:56:48.299Z,100720.08
2022-12-18T08:59:20.829Z,100725.35
2022-12-18T09:01:52.714Z,100728.95
2022-12-18T09:04:24.773Z,100727.50
2022-12-18T09:06:58.784Z,100732.43
2022-12-18T09:09:30.501Z,100738.98
2022-12-18T09:12:02.334Z,100742.73
2022-12-18T09:14:33.998Z,100747.40
2022-12-18T09:17:06.004Z,100751.20
2022-12-18T09:19:37.670Z,100751.18
2022-12-18T09:22:10.598Z,100753.32
2022-12-18T09:24:42.392Z,100755.96
2022-12-18T09:27:14.003Z,100752.77
2022-12-18T09:29:46.057Z,100748.34
2022-12-18T09:32:22.330Z,100747.33
2022-12-18T09:34:55.000Z,100746.65
2022-12-18T09:37:27.713Z,100745.00
2022-12-18T09:39:59.482Z,100746.50
2022-12-18T09:42:31.611Z,100745.79
2022-12-18T09:45:05.456Z,100754.91
2022-12-18T09:47:43.351Z,100755.27
2022-12-18T09:50:41.541Z,100759.08
2022-12-18T09:53:18.185Z,100755.88
2022-12-18T09:55:53.375Z,100753.05
2022-12-18T09:58:30.911Z,100754.75
2022-12-18T10:01:14.086Z,100757.37
2022-12-18T10:03:45.890Z,100755.07
2022-12-18T10:06:31.844Z,100755.55
2022-12-18T10:09:08.425Z,100753.01
2022-12-18T10:11:51.027Z,100747.98
2022-12-18T10:14:32.639Z,100748.10
2022-12-18T10:17:12.587Z,100747.17
2022-12-18T10:19:52.683Z,100744.03
2022-12-18T10:22:37.039Z,100746.24
2022-12-18T10:25:21.288Z,100745.30
2022-12-18T10:27:58.716Z,100746.61
2022-12-18T10:30:30.366Z,100738.05
2022-12-18T10:33:07.736Z,100732.33
2022-12-18T10:35:43.104Z,100729.54
2022-12-18T10:38:29.007Z,100723.53
2022-12-18T10:41:02.601Z,100716.98
2022-12-18T10:43:33.702Z,100715.65
2022-12-18T10:46:18.679Z,100717.23
2022-12-18T10:48:57.975Z,100712.36
2022-12-18T10:51:35.548Z,100711.45
2022-12-18T10:54:15.581Z,100712.97
2022-12-18T10:56:47.893Z,100715.98
2022-12-18T10:59:20.388Z,100712.63
2022-12-18T11:01:55.896Z,100711.39
2022-12-18T11:04:30.129Z,100700.19
2022-12-18T11:07:05.060Z,100703.59
2022-12-18T11:09:38.611Z,100704.97
2022-12-18T11:12:19.823Z,100699.04
2022-12-18T11:14:53.524Z,100694.95
2022-12-18T11:17:30.441Z,100689.17
2022-12-18T11:20:04.508Z,100687.47
2022-12-18T11:22:40.833Z,100690.05
2022-12-18T11:25:36.680Z,100691.36
2022-12-18T11:28:27.499Z,100687.37
2022-12-18T11:31:14.542Z,100685.54
2022-12-18T11:34:19.645Z,100691.31
2022-12-18T11:36:47.939Z,100697.67
2022-12-18T11:39:26.780Z,100701.80
2022-12-18T11:42:15.517Z,100709.73
2022-12-18T11:44:50.710Z,100713.16
2022-12-18T11:47:30.675Z,100712.77
2022-12-18T11:50:05.736Z,100709.86
2022-12-18T11:52:40.785Z,100705.64
2022-12-18T11:55:16.448Z,100711.55
2022-12-18T11:57:58.123Z,100708.95
2022-12-18T12:00:31.230Z,100716.29
2022-12-18T12:03:29.558Z,100714.70
2022-12-18T12:06:15.551Z,100717.45
2022-12-18T12:08:59.367Z,100718.55
2022-12-18T12:11:43.401Z,100720.84
2022-12-18T12:14:44.602Z,100728.92
2022-12-18T12:17:26.177Z,100725.73
2022-12-18T12:20:06.284Z,100725.82
2022-12-18T12:22:49.482Z,100731.29
2022-12-18T12:25:40.497Z,100733.50
2022-12-18T12:28:26.675Z,100731.64
2022-12-18T12:31:08.263Z,100730.52
2022-12-18T12:33:54.104Z,100731.28
2022-12-18T12:36:35.681Z,100736.68
2022-12-18T12:39:13.794Z,100736.35
2022-12-18T12:42:06.641Z,100741.88
2022-12-18T12:44:44.674Z,100739.39
2022-12-18T12:47:20.286Z,100738.73
2022-12-18T12:49:56.099Z,100741.12
2022-12-18T12:52:35.391Z,100741.56
2022-12-18T12:55:15.027Z,100731.93
2022-12-18T12:58:09.766Z,100733.52
2022-12-18T13:00:49.701Z,100742.02
2022-12-18T13:03:31.589Z,100735.10
2022-12-18T13:06:07.196Z,100740.41
2022-12-18T13:08:58.611Z,100747.96
2022-12-18T13:11:59.773Z,100753.45
2022-12-18T13:14:34.881Z,100751.17
2022-12-18T13:17:31.950Z,100755.17
2022-12-18T13:20:14.493Z,100753.91
2022-12-18T13:22:51.241Z,100758.19
2022-12-18T13:25:40.261Z,100765.09
2022-12-18T13:28:15.035Z,100767.80
2022-12-18T13:30:55.383Z,100768.08
2022-12-18T13:34:16.467Z,100764.58
2022-12-18T13:36:38.121Z,100772.25
2022-12-18T13:39:34.299Z,100772.16
2022-12-18T13:43:00.244Z,100765.27
2022-12-18T13:46:03.617Z,100773.73
2022-12-18T13:48:38.958Z,100776.66
2022-12-18T13:51:13.157Z,100782.84
2022-12-18T13:53:50.778Z,100778.06
2022-12-18T13:56:29.573Z,100783.20
2022-12-18T13:59:22.894Z,100783.85
2022-12-18T14:02:04.214Z,100782.88
2022-12-18T14:04:38.131Z,100783.10
2022-12-18T14:07:10.061Z,100781.58
2022-12-18T14:09:47.075Z,100783.56
2022-12-18T14:12:41.095Z,100778.70
2022-12-18T14:15:30.057Z,100777.28
2022-12-18T14:18:15.398Z,100778.11
2022-12-18T14:20:54.632Z,100778.66
2022-12-18T14:23:34.799Z,100775.43
2022-12-18T14:26:29.995Z,100773.08
2022-12-18T14:29:20.504Z,100778.52
2022-12-18T14:32:17.461Z,100779.33
2022-12-18T14:34:52.540Z,100775.20
2022-12-18T14:37:26.702Z,100776.71
2022-12-18T14:40:10.442Z,100776.36
2022-12-18T14:42:44.219Z,100783.30
2022-12-18T14:45:44.140Z,100779.14
2022-12-18T14:48:23.101Z,100783.30
2022-12-18T14:51:04.431Z,100794.89
2022-12-18T14:53:46.293Z,100799.01
2022-12-18T14:56:24.911Z,100801.78
2022-12-18T14:58:58.912Z,100802.11
2022-12-18T15:01:35.249Z,100803.09
2022-12-18T15:04:28.387Z,100800.48
2022-12-18T15:07:14.665Z,100806.92
2022-12-18T15:10:13.358Z,100805.67
2022-12-18T15:12:47.640Z,100811.65
2022-12-18T15:15:51.762Z,100811.36
2022-12-18T15:18:24.032Z,100816.80
2022-12-18T15:20:57.932Z,100819.98
2022-12-18T15:23:35.888Z,100826.43
2022-12-18T15:26:11.433Z,100827.55
2022-12-18T15:28:47.889Z,100833.64
2022-12-18T15:31:33.074Z,100832.30
2022-12-18T15:34:21.378Z,100832.88
2022-12-18T15:36:53.932Z,100842.07
2022-12-18T15:39:25.752Z,100843.14
2022-12-18T15:42:15.256Z,100846.62
2022-12-18T15:44:47.128Z,100831.98
2022-12-18T15:47:18.799Z,100849.11
2022-12-18T15:49:50.471Z,100848.63
2022-12-18T15:52:28.171Z,100848.30
2022-12-18T15:55:17.420Z,100849.18
2022-12-18T15:57:49.019Z,100852.30
2022-12-18T16:00:21.768Z,100852.48
2022-12-18T16:02:53.634Z,100852.47
2022-12-18T16:05:27.923Z,100852.30
2022-12-18T16:07:59.695Z,100854.71
2022-12-18T16:10:31.607Z,100858.70
2022-12-18T16:13:03.389Z,100860.25
2022-12-18T16:15:35.139Z,100863.02
2022-12-18T16:18:07.171Z,100863.02
2022-12-18T16:20:40.318Z,100863.88
2022-12-18T16:23:12.110Z,100868.02
2022-12-18T16:25:45.276Z,100869.41
2022-12-18T16:28:16.913Z,100871.84
2022-12-18T16:30:49.087Z,100876.33
2022-12-18T16:33:20.804Z,100879.45
2022-12-18T16:35:56.299Z,100875.47
2022-12-18T16:38:28.063Z,100872.71
2022-12-18T16:41:17.625Z,100876.00
2022-12-18T16:43:54.664Z,100876.35
2022-12-18T16:46:27.368Z,100877.39
2022-12-18T16:49:00.571Z,100870.99
2022-12-18T16:51:32.654Z,100875.31
2022-12-18T16:54:09.657Z,100866.85
2022-12-18T16:56:44.129Z,100867.39
2022-12-18T16:59:15.764Z,100865.86
2022-12-18T17:01:47.782Z,100859.47
2022-12-18T17:04:19.662Z,100852.58
2022-12-18T17:06:52.148Z,100850.52
2022-12-18T17:09:26.372Z,100851.90
2022-12-18T17:11:58.026Z,100846.55
2022-12-18T17:14:29.765Z,100827.21
2022-12-18T17:19:54.908Z,100836.17
2022-12-18T17:22:26.834Z,100832.56
2022-12-18T17:24:58.436Z,100822.37
2022-12-18T17:27:30.081Z,100814.78
2022-12-18T17:30:01.825Z,100817.70
2022-12-18T17:32:33.423Z,100819.77
2022-12-18T17:35:08.872Z,100820.63
2022-12-18T17:37:40.764Z,100823.56
2022-12-18T17:40:13.774Z,100828.90
2022-12-18T17:42:45.457Z,100828.39
2022-12-18T17:45:17.229Z,100829.07
2022-12-18T17:47:48.871Z,100845.98
2022-12-18T17:50:20.844Z,100852.54
2022-12-18T17:52:56.443Z,100860.48
2022-12-18T17:55:28.867Z,100863.58
2022-12-18T17:58:00.842Z,100862.91
2022-12-18T18:00:32.624Z,100859.80
2022-12-18T18:03:04.567Z,100866.51
2022-12-18T18:05:36.696Z,100867.36
2022-12-18T18:08:09.391Z,100871.69
2022-12-18T18:10:43.439Z,100861.17
2022-12-18T18:13:46.389Z,100864.77
2022-12-18T18:16:19.405Z,100863.56
2022-12-18T18:18:52.208Z,100852.52
2022-12-18T18:21:23.978Z,100853.71
2022-12-18T18:23:55.559Z,100856.98
2022-12-18T18:26:29.738Z,100849.73
2022-12-18T18:29:03.989Z,100855.23
2022-12-18T18:31:41.017Z,100864.89
2022-12-18T18:34:18.154Z,100864.02
2022-12-18T18:36:49.840Z,100862.13
2022-12-18T18:39:22.144Z,100869.88
2022-12-18T18:41:53.853Z,100870.90
2022-12-18T18:44:26.457Z,100875.55
2022-12-18T18:46:59.584Z,100882.27
2022-12-18T18:49:32.263Z,100883.13
2022-12-18T18:52:03.987Z,100879.15
2022-12-18T18:54:35.949Z,100876.04
2022-12-18T18:57:29.983Z,100881.70
2022-12-18T18:59:59.961Z,100884.79
2022-12-18T19:02:31.706Z,100885.10
2022-12-18T19:05:03.937Z,100894.05
2022-12-18T19:07:35.627Z,100897.85
2022-12-18T19:10:09.267Z,100906.05
2022-12-18T19:12:58.886Z,100904.45
2022-12-18T19:15:30.689Z,100899.98
2022-12-18T19:18:02.404Z,100907.39
2022-12-18T19:20:35.183Z,100910.81
2022-12-18T19:23:06.862Z,100916.14
2022-12-18T19:25:41.798Z,100917.52
2022-12-18T19:28:21.401Z,100908.55
2022-12-18T19:30:59.223Z,100889.93
2022-12-18T19:33:43.026Z,100896.80
2022-12-18T19:36:22.594Z,100903.31
2022-12-18T19:38:55.637Z,100910.98
2022-12-18T19:41:31.137Z,100917.30
2022-12-18T19:44:07.629Z,100916.27
2022-12-18T19:46:41.864Z,100917.42
2022-12-18T19:49:18.224Z,100916.71
2022-12-18T19:51:50.334Z,100916.16
2022-12-18T19:54:22.132Z,100913.88
2022-12-18T19:56:53.748Z,100916.98
2022-12-18T19:59:25.377Z,100914.71
2022-12-18T20:01:57.251Z,100902.30
2022-12-18T20:04:29.173Z,100898.02
2022-12-18T20:07:00.862Z,100901.23
2022-12-18T20:09:33.104Z,100900.86
2022-12-18T20:12:05.870Z,100901.70
2022-12-18T20:14:37.787Z,100898.91
2022-12-18T20:17:09.607Z,100906.41
2022-12-18T20:19:41.980Z,100899.89
2022-12-18T20:22:14.071Z,100893.86
2022-12-18T20:24:46.363Z,100889.38
2022-12-18T20:27:23.760Z,100889.23
2022-12-18T20:29:55.888Z,100889.38
2022-12-18T20:32:35.406Z,100892.45
2022-12-18T20:35:10.368Z,100892.23
2022-12-18T20:37:43.795Z,100889.11
2022-12-18T20:40:42.144Z,100883.21
2022-12-18T20:43:17.302Z,100881.98
2022-12-18T20:45:49.251Z,100876.27
2022-12-18T20:48:26.365Z,100874.50
2022-12-18T20:51:03.847Z,100866.87
2022-12-18T20:53:36.836Z,100869.82
2022-12-18T20:56:12.727Z,100861.94
2022-12-18T20:58:46.012Z,100855.05
2022-12-18T21:01:21.137Z,100856.91
2022-12-18T21:03:54.071Z,100862.20
2022-12-18T21:06:25.957Z,100856.85
2022-12-18T21:08:57.615Z,100852.75
2022-12-18T21:11:49.891Z,100852.75
2022-12-18T21:14:24.050Z,100854.12
2022-12-18T21:17:02.010Z,100847.06
2022-12-18T21:19:34.027Z,100849.29
2022-12-18T21:22:06.140Z,100855.63
2022-12-18T21:24:37.976Z,100860.43
2022-12-18T21:27:09.897Z,100862.86
2022-12-18T21:29:46.993Z,100867.62
2022-12-18T21:32:18.849Z,100867.17
2022-12-18T21:34:52.252Z,100860.76
2022-12-18T21:37:23.997Z,100858.33
2022-12-18T21:39:55.654Z,100852.30
2022-12-18T21:42:44.148Z,100852.09
2022-12-18T21:45:15.739Z,100853.07
2022-12-18T21:47:47.520Z,100858.00
2022-12-18T21:50:19.589Z,100859.20
2022-12-18T21:52:51.452Z,100864.99
2022-12-18T21:55:23.155Z,100865.09
2022-12-18T21:57:56.409Z,100866.93
2022-12-18T22:00:28.118Z,100865.19
2022-12-18T22:03:17.547Z,100861.61
2022-12-18T22:05:53.317Z,100864.73
2022-12-18T22:08:39.845Z,100865.39
2022-12-18T22:11:15.492Z,100860.34
2022-12-18T22:13:49.066Z,100863.42
2022-12-18T22:16:23.147Z,100864.41
2022-12-18T22:18:55.904Z,100866.44
2022-12-18T22:21:30.346Z,100865.36
2022-12-18T22:24:03.454Z,100862.80
2022-12-18T22:26:39.435Z,100862.16
2022-12-18T22:29:35.275Z,100861.12
2022-12-18T22:32:10.370Z,100853.36
2022-12-18T22:34:43.740Z,100854.80
2022-12-18T22:37:17.592Z,100856.11
2022-12-18T22:39:49.210Z,100857.44
2022-12-18T22:42:21.610Z,100861.00
2022-12-18T22:44:53.192Z,100856.13
2022-12-18T22:47:29.358Z,100858.66
2022-12-18T22:50:03.079Z,100860.05
2022-12-18T22:52:34.897Z,100843.41
2022-12-18T22:55:07.871Z,100860.87
2022-12-18T22:57:41.168Z,100863.48
2022-12-18T23:00:23.940Z,100859.33
2022-12-18T23:03:00.641Z,100856.98
2022-12-18T23:05:34.273Z,100860.31
2022-12-18T23:08:06.306Z,100856.58
2022-12-18T23:10:40.741Z,100857.08
2022-12-18T23:13:12.409Z,100850.54
2022-12-18T23:15:45.281Z,100845.17
2022-12-18T23:18:17.788Z,100845.89
2022-12-18T23:20:50.541Z,100843.11
2022-12-18T23:23:23.365Z,100849.61
2022-12-18T23:26:03.106Z,100847.34
2022-12-18T23:28:36.722Z,100857.17
2022-12-18T23:31:12.750Z,100860.44
2022-12-18T23:33:48.185Z,100857.31
2022-12-18T23:36:23.108Z,100854.94
2022-12-18T23:38:57.370Z,100847.52
2022-12-18T23:41:32.383Z,100851.67
2022-12-18T23:44:04.008Z,100846.33
2022-12-18T23:46:37.549Z,100835.04
2022-12-18T23:49:09.387Z,100837.61
2022-12-18T23:51:43.831Z,100841.13
2022-12-18T23:54:15.734Z,100830.86
2022-12-18T23:56:47.398Z,100838.98
2022-12-18T23:59:23.953Z,100843.11
